sensor_id;sensor_type;location;lat;lon;timestamp;pressure;altitude;pressure_sealevel;temperature;humidity
60417;BME280;46263;44.726;10.396;2023-08-24T05:10:33;100504.97;;;27.11;57.04
60417;BME280;46263;44.726;10.396;2023-08-24T05:12:59;100501.72;;;27.43;56.09
60417;BME280;46263;44.726;10.396;2023-08-24T05:15:25;100506.59;;;27.81;55.30
60417;BME280;46263;44.726;10.396;2023-08-24T05:17:51;100509.72;;;28.14;54.41
60417;BME280;46263;44.726;10.396;2023-08-24T05:20:20;100503.06;;;28.38;54.46
60417;BME280;46263;44.726;10.396;2023-08-24T05:22:46;100500.59;;;28.61;53.60
60417;BME280;46263;44.726;10.396;2023-08-24T05:25:11;100497.50;;;28.86;53.43
60417;BME280;46263;44.726;10.396;2023-08-24T05:27:37;100502.34;;;28.97;53.24
60417;BME280;46263;44.726;10.396;2023-08-24T05:30:03;100497.34;;;29.13;52.51
60417;BME280;46263;44.726;10.396;2023-08-24T05:32:31;100496.56;;;29.28;51.78
60417;BME280;46263;44.726;10.396;2023-08-24T05:34:56;100489.25;;;29.40;51.37
60417;BME280;46263;44.726;10.396;2023-08-24T05:37:21;100486.81;;;29.50;51.17
60417;BME280;46263;44.726;10.396;2023-08-24T05:39:47;100488.56;;;29.57;50.91
60417;BME280;46263;44.726;10.396;2023-08-24T05:42:12;100493.84;;;29.63;50.36
60417;BME280;46263;44.726;10.396;2023-08-24T05:44:38;100488.50;;;29.73;50.04
60417;BME280;46263;44.726;10.396;2023-08-24T05:47:03;100482.91;;;29.77;50.35
60417;BME280;46263;44.726;10.396;2023-08-24T05:49:29;100494.25;;;29.73;50.10
60417;BME280;46263;44.726;10.396;2023-08-24T05:51:55;100494.34;;;29.75;50.17
60417;BME280;46263;44.726;10.396;2023-08-24T05:54:20;100493.16;;;29.80;50.30
60417;BME280;46263;44.726;10.396;2023-08-24T05:56:46;100494.56;;;29.79;49.84
60417;BME280;46263;44.726;10.396;2023-08-24T05:59:12;100486.25;;;29.87;49.58
60417;BME280;46263;44.726;10.396;2023-08-24T06:01:38;100489.19;;;29.89;49.80
60417;BME280;46263;44.726;10.396;2023-08-24T06:04:13;100489.59;;;29.97;49.62
60417;BME280;46263;44.726;10.396;2023-08-24T06:06:39;100489.16;;;30.04;50.59
60417;BME280;46263;44.726;10.396;2023-08-24T06:09:04;100492.97;;;30.08;50.30
60417;BME280;46263;44.726;10.396;2023-08-24T06:11:30;100503.94;;;30.12;50.22
60417;BME280;46263;44.726;10.396;2023-08-24T06:13:55;100499.16;;;30.18;50.44
60417;BME280;46263;44.726;10.396;2023-08-24T06:16:21;100511.19;;;30.30;49.53
60417;BME280;46263;44.726;10.396;2023-08-24T06:18:46;100512.78;;;30.33;49.99
60417;BME280;46263;44.726;10.396;2023-08-24T06:21:12;100508.72;;;30.40;50.72
60417;BME280;46263;44.726;10.396;2023-08-24T06:23:38;100502.47;;;30.46;49.96
60417;BME280;46263;44.726;10.396;2023-08-24T06:26:04;100506.38;;;30.52;50.04
60417;BME280;46263;44.726;10.396;2023-08-24T06:28:30;100503.72;;;30.58;49.48
60417;BME280;46263;44.726;10.396;2023-08-24T06:30:55;100506.03;;;30.62;49.67
60417;BME280;46263;44.726;10.396;2023-08-24T06:33:21;100509.97;;;30.70;49.98
60417;BME280;46263;44.726;10.396;2023-08-24T06:35:46;100508.50;;;30.69;50.49
60417;BME280;46263;44.726;10.396;2023-08-24T06:38:13;100510.22;;;30.76;50.95
60417;BME280;46263;44.726;10.396;2023-08-24T06:40:38;100517.31;;;30.73;49.04
60417;BME280;46263;44.726;10.396;2023-08-24T06:43:04;100512.34;;;30.76;48.48
60417;BME280;46263;44.726;10.396;2023-08-24T06:45:31;100517.03;;;30.84;49.43
60417;BME280;46263;44.726;10.396;2023-08-24T06:47:56;100520.75;;;30.87;49.01
60417;BME280;46263;44.726;10.396;2023-08-24T06:50:22;100509.50;;;30.95;48.32
60417;BME280;46263;44.726;10.396;2023-08-24T06:52:47;100514.13;;;31.02;48.89
60417;BME280;46263;44.726;10.396;2023-08-24T06:55:13;100511.63;;;31.12;48.32
60417;BME280;46263;44.726;10.396;2023-08-24T06:57:38;100519.06;;;31.17;48.44
60417;BME280;46263;44.726;10.396;2023-08-24T07:00:04;100517.13;;;31.23;47.54
60417;BME280;46263;44.726;10.396;2023-08-24T07:02:35;100522.00;;;31.19;47.78
60417;BME280;46263;44.726;10.396;2023-08-24T07:05:03;100520.84;;;31.26;46.86
60417;BME280;46263;44.726;10.396;2023-08-24T07:07:34;100522.00;;;31.19;46.31
60417;BME280;46263;44.726;10.396;2023-08-24T07:09:59;100524.31;;;31.22;46.34
60417;BME280;46263;44.726;10.396;2023-08-24T07:12:25;100526.69;;;31.28;46.50
60417;BME280;46263;44.726;10.396;2023-08-24T07:14:50;100526.25;;;31.35;46.05
60417;BME280;46263;44.726;10.396;2023-08-24T07:17:16;100527.06;;;31.38;45.75
60417;BME280;46263;44.726;10.396;2023-08-24T07:19:41;100532.25;;;31.41;46.14
60417;BME280;46263;44.726;10.396;2023-08-24T07:22:06;100525.16;;;31.44;46.02
60417;BME280;46263;44.726;10.396;2023-08-24T07:24:33;100531.75;;;31.47;45.41
60417;BME280;46263;44.726;10.396;2023-08-24T07:26:58;100529.66;;;31.49;45.30
60417;BME280;46263;44.726;10.396;2023-08-24T07:29:24;100531.94;;;31.53;44.97
60417;BME280;46263;44.726;10.396;2023-08-24T07:31:49;100535.84;;;31.59;44.59
60417;BME280;46263;44.726;10.396;2023-08-24T07:34:15;100536.56;;;31.60;44.53
60417;BME280;46263;44.726;10.396;2023-08-24T07:36:41;100539.53;;;31.62;44.37
60417;BME280;46263;44.726;10.396;2023-08-24T07:39:07;100548.13;;;31.60;44.98
60417;BME280;46263;44.726;10.396;2023-08-24T07:41:33;100543.84;;;31.61;44.66
60417;BME280;46263;44.726;10.396;2023-08-24T07:43:58;100545.50;;;31.65;44.75
60417;BME280;46263;44.726;10.396;2023-08-24T07:46:24;100548.59;;;31.71;44.50
60417;BME280;46263;44.726;10.396;2023-08-24T07:48:50;100542.06;;;31.71;44.75
60417;BME280;46263;44.726;10.396;2023-08-24T07:51:15;100544.34;;;31.74;45.25
60417;BME280;46263;44.726;10.396;2023-08-24T07:53:40;100535.81;;;31.78;45.64
60417;BME280;46263;44.726;10.396;2023-08-24T07:56:06;100539.59;;;31.83;45.89
60417;BME280;46263;44.726;10.396;2023-08-24T07:58:32;100541.81;;;31.84;45.46
60417;BME280;46263;44.726;10.396;2023-08-24T08:00:59;100539.81;;;31.89;45.73
60417;BME280;46263;44.726;10.396;2023-08-24T08:03:24;100544.88;;;31.88;45.91
60417;BME280;46263;44.726;10.396;2023-08-24T08:05:50;100547.09;;;31.90;46.11
60417;BME280;46263;44.726;10.396;2023-08-24T08:08:16;100543.59;;;31.93;46.22
60417;BME280;46263;44.726;10.396;2023-08-24T08:10:42;100551.00;;;31.98;46.23
60417;BME280;46263;44.726;10.396;2023-08-24T08:13:08;100545.28;;;32.00;45.86
60417;BME280;46263;44.726;10.396;2023-08-24T08:15:36;100545.44;;;32.04;46.63
60417;BME280;46263;44.726;10.396;2023-08-24T08:18:04;100537.59;;;32.07;46.33
60417;BME280;46263;44.726;10.396;2023-08-24T08:20:30;100541.19;;;32.07;46.35
60417;BME280;46263;44.726;10.396;2023-08-24T08:22:55;100544.16;;;32.09;46.45
60417;BME280;46263;44.726;10.396;2023-08-24T08:25:21;100546.47;;;32.13;46.35
60417;BME280;46263;44.726;10.396;2023-08-24T08:27:48;100535.03;;;32.17;46.82
60417;BME280;46263;44.726;10.396;2023-08-24T08:30:14;100535.91;;;32.21;46.70
60417;BME280;46263;44.726;10.396;2023-08-24T08:32:40;100533.06;;;32.23;47.15
60417;BME280;46263;44.726;10.396;2023-08-24T08:35:06;100524.47;;;32.25;47.33
60417;BME280;46263;44.726;10.396;2023-08-24T08:37:31;100525.34;;;32.30;46.83
60417;BME280;46263;44.726;10.396;2023-08-24T08:39:57;100533.34;;;32.31;46.39
60417;BME280;46263;44.726;10.396;2023-08-24T08:42:23;100533.47;;;32.35;45.74
60417;BME280;46263;44.726;10.396;2023-08-24T08:44:48;100534.22;;;32.36;44.78
60417;BME280;46263;44.726;10.396;2023-08-24T08:47:15;100540.75;;;32.36;45.18
60417;BME280;46263;44.726;10.396;2023-08-24T08:49:43;100535.09;;;32.40;45.43
60417;BME280;46263;44.726;10.396;2023-08-24T08:52:10;100533.69;;;32.41;45.29
60417;BME280;46263;44.726;10.396;2023-08-24T08:54:36;100536.72;;;32.45;45.10
60417;BME280;46263;44.726;10.396;2023-08-24T08:57:02;100537.44;;;32.45;45.76
60417;BME280;46263;44.726;10.396;2023-08-24T08:59:28;100529.63;;;32.50;45.83
60417;BME280;46263;44.726;10.396;2023-08-24T09:01:56;100534.09;;;32.53;45.77
60417;BME280;46263;44.726;10.396;2023-08-24T09:04:23;100521.09;;;32.54;46.12
60417;BME280;46263;44.726;10.396;2023-08-24T09:06:49;100515.44;;;32.58;46.83
60417;BME280;46263;44.726;10.396;2023-08-24T09:09:15;100523.53;;;32.61;47.03
60417;BME280;46263;44.726;10.396;2023-08-24T09:11:40;100514.97;;;32.65;46.42
60417;BME280;46263;44.726;10.396;2023-08-24T09:14:07;100516.47;;;32.66;45.80
60417;BME280;46263;44.726;10.396;2023-08-24T09:16:33;100515.84;;;32.70;45.43
60417;BME280;46263;44.726;10.396;2023-08-24T09:19:05;100517.31;;;32.71;45.35
60417;BME280;46263;44.726;10.396;2023-08-24T09:21:30;100516.09;;;32.78;45.23
60417;BME280;46263;44.726;10.396;2023-08-24T09:23:56;100508.94;;;32.81;44.42
60417;BME280;46263;44.726;10.396;2023-08-24T09:26:32;100509.78;;;32.85;46.00
60417;BME280;46263;44.726;10.396;2023-08-24T09:28:59;100499.69;;;32.86;45.00
60417;BME280;46263;44.726;10.396;2023-08-24T09:31:37;100510.78;;;32.94;45.53
60417;BME280;46263;44.726;10.396;2023-08-24T09:34:04;100500.78;;;32.99;45.34
60417;BME280;46263;44.726;10.396;2023-08-24T09:36:36;100497.97;;;33.01;44.27
60417;BME280;46263;44.726;10.396;2023-08-24T09:39:03;100492.22;;;33.03;44.33
60417;BME280;46263;44.726;10.396;2023-08-24T09:41:54;100503.28;;;33.08;43.99
60417;BME280;46263;44.726;10.396;2023-08-24T09:44:19;100504.88;;;33.13;45.02
60417;BME280;46263;44.726;10.396;2023-08-24T09:46:45;100501.44;;;33.19;44.64
60417;BME280;46263;44.726;10.396;2023-08-24T09:49:11;100494.38;;;33.26;43.72
60417;BME280;46263;44.726;10.396;2023-08-24T09:51:39;100492.91;;;33.25;41.94
60417;BME280;46263;44.726;10.396;2023-08-24T09:54:06;100494.56;;;33.31;43.12
60417;BME280;46263;44.726;10.396;2023-08-24T09:56:38;100491.03;;;33.35;42.67
60417;BME280;46263;44.726;10.396;2023-08-24T09:59:11;100494.63;;;33.33;41.90
60417;BME280;46263;44.726;10.396;2023-08-24T10:01:40;100485.97;;;33.35;42.23
60417;BME280;46263;44.726;10.396;2023-08-24T10:04:08;100492.63;;;33.40;42.58
60417;BME280;46263;44.726;10.396;2023-08-24T10:06:36;100487.72;;;33.46;43.06
60417;BME280;46263;44.726;10.396;2023-08-24T10:09:02;100475.56;;;33.52;42.96
60417;BME280;46263;44.726;10.396;2023-08-24T10:11:30;100472.97;;;33.62;42.42
60417;BME280;46263;44.726;10.396;2023-08-24T10:14:24;100469.50;;;33.67;42.80
60417;BME280;46263;44.726;10.396;2023-08-24T10:16:52;100470.34;;;33.72;42.61
60417;BME280;46263;44.726;10.396;2023-08-24T10:19:18;100464.53;;;33.72;41.99
60417;BME280;46263;44.726;10.396;2023-08-24T10:21:43;100457.97;;;33.71;41.21
60417;BME280;46263;44.726;10.396;2023-08-24T10:24:11;100464.53;;;33.72;41.50
60417;BME280;46263;44.726;10.396;2023-08-24T10:26:39;100461.66;;;33.74;40.16
60417;BME280;46263;44.726;10.396;2023-08-24T10:29:06;100449.47;;;33.79;39.41
60417;BME280;46263;44.726;10.396;2023-08-24T10:31:31;100457.66;;;33.87;39.41
60417;BME280;46263;44.726;10.396;2023-08-24T10:33:58;100454.19;;;33.92;39.78
60417;BME280;46263;44.726;10.396;2023-08-24T10:36:24;100448.38;;;33.92;40.99
60417;BME280;46263;44.726;10.396;2023-08-24T10:38:55;100450.69;;;33.98;40.36
60417;BME280;46263;44.726;10.396;2023-08-24T10:41:21;100440.06;;;34.06;41.23
60417;BME280;46263;44.726;10.396;2023-08-24T10:43:50;100441.56;;;34.09;40.99
60417;BME280;46263;44.726;10.396;2023-08-24T10:46:16;100442.50;;;34.17;41.69
60417;BME280;46263;44.726;10.396;2023-08-24T10:53:44;100430.31;;;34.23;39.23
60417;BME280;46263;44.726;10.396;2023-08-24T10:56:17;100442.00;;;34.27;40.21
60417;BME280;46263;44.726;10.396;2023-08-24T10:58:44;100435.56;;;34.30;39.80
60417;BME280;46263;44.726;10.396;2023-08-24T11:01:19;100433.66;;;34.41;37.49
60417;BME280;46263;44.726;10.396;2023-08-24T11:03:56;100443.97;;;34.48;38.04
60417;BME280;46263;44.726;10.396;2023-08-24T11:06:22;100438.81;;;34.44;37.13
60417;BME280;46263;44.726;10.396;2023-08-24T11:08:49;100430.03;;;34.42;37.29
60417;BME280;46263;44.726;10.396;2023-08-24T11:11:21;100438.09;;;34.46;37.97
60417;BME280;46263;44.726;10.396;2023-08-24T11:14:19;100436.03;;;34.50;37.10
60417;BME280;46263;44.726;10.396;2023-08-24T11:16:47;100436.75;;;34.51;36.32
60417;BME280;46263;44.726;10.396;2023-08-24T11:19:14;100423.88;;;34.58;38.19
60417;BME280;46263;44.726;10.396;2023-08-24T11:21:41;100427.59;;;34.60;38.26
60417;BME280;46263;44.726;10.396;2023-08-24T11:24:08;100413.88;;;34.65;37.98
60417;BME280;46263;44.726;10.396;2023-08-24T11:26:34;100416.97;;;34.73;35.31
60417;BME280;46263;44.726;10.396;2023-08-24T11:29:05;100412.75;;;34.80;35.55
60417;BME280;46263;44.726;10.396;2023-08-24T11:31:30;100414.22;;;34.81;36.60
60417;BME280;46263;44.726;10.396;2023-08-24T11:33:56;100405.63;;;34.87;36.07
60417;BME280;46263;44.726;10.396;2023-08-24T11:36:22;100398.38;;;34.88;36.02
60417;BME280;46263;44.726;10.396;2023-08-24T11:38:56;100395.47;;;34.88;37.56
60417;BME280;46263;44.726;10.396;2023-08-24T11:41:21;100405.69;;;34.89;36.52
60417;BME280;46263;44.726;10.396;2023-08-24T11:43:49;100393.28;;;34.88;36.67
60417;BME280;46263;44.726;10.396;2023-08-24T11:46:16;100389.00;;;34.91;36.73
60417;BME280;46263;44.726;10.396;2023-08-24T11:48:43;100386.09;;;34.91;36.61
60417;BME280;46263;44.726;10.396;2023-08-24T11:51:09;100386.25;;;34.99;35.84
60417;BME280;46263;44.726;10.396;2023-08-24T11:53:41;100394.41;;;35.04;36.83
60417;BME280;46263;44.726;10.396;2023-08-24T11:56:14;100393.84;;;35.14;34.08
60417;BME280;46263;44.726;10.396;2023-08-24T11:58:45;100385.91;;;35.16;34.71
60417;BME280;46263;44.726;10.396;2023-08-24T12:01:12;100380.28;;;35.26;35.55
60417;BME280;46263;44.726;10.396;2023-08-24T12:03:39;100378.84;;;35.27;35.37
60417;BME280;46263;44.726;10.396;2023-08-24T12:06:15;100374.72;;;35.40;32.51
60417;BME280;46263;44.726;10.396;2023-08-24T12:08:49;100375.56;;;35.47;32.57
60417;BME280;46263;44.726;10.396;2023-08-24T12:11:20;100377.88;;;35.52;31.82
60417;BME280;46263;44.726;10.396;2023-08-24T12:13:48;100369.88;;;35.53;32.93
60417;BME280;46263;44.726;10.396;2023-08-24T12:16:15;100359.06;;;35.57;33.38
60417;BME280;46263;44.726;10.396;2023-08-24T12:18:53;100363.63;;;35.68;33.76
60417;BME280;46263;44.726;10.396;2023-08-24T12:21:20;100359.34;;;35.75;34.03
60417;BME280;46263;44.726;10.396;2023-08-24T12:24:03;100361.63;;;35.81;34.84
60417;BME280;46263;44.726;10.396;2023-08-24T12:26:35;100351.38;;;35.78;33.34
60417;BME280;46263;44.726;10.396;2023-08-24T12:29:03;100352.91;;;35.81;33.07
60417;BME280;46263;44.726;10.396;2023-08-24T12:31:31;100339.91;;;35.87;33.98
60417;BME280;46263;44.726;10.396;2023-08-24T12:34:05;100327.59;;;35.91;34.05
60417;BME280;46263;44.726;10.396;2023-08-24T12:36:32;100330.56;;;35.95;33.78
60417;BME280;46263;44.726;10.396;2023-08-24T12:38:58;100334.31;;;36.01;32.69
60417;BME280;46263;44.726;10.396;2023-08-24T12:41:24;100328.56;;;36.05;32.99
60417;BME280;46263;44.726;10.396;2023-08-24T12:43:53;100327.91;;;36.09;33.31
60417;BME280;46263;44.726;10.396;2023-08-24T12:46:18;100326.53;;;36.16;33.33
60417;BME280;46263;44.726;10.396;2023-08-24T12:48:44;100316.31;;;36.15;34.36
60417;BME280;46263;44.726;10.396;2023-08-24T12:51:09;100319.31;;;36.21;33.67
60417;BME280;46263;44.726;10.396;2023-08-24T12:53:34;100309.91;;;36.24;34.14
60417;BME280;46263;44.726;10.396;2023-08-24T12:56:00;100315.00;;;36.24;33.14
60417;BME280;46263;44.726;10.396;2023-08-24T12:58:25;100307.03;;;36.26;34.04
60417;BME280;46263;44.726;10.396;2023-08-24T13:00:51;100305.66;;;36.33;33.33
60417;BME280;46263;44.726;10.396;2023-08-24T13:03:16;100302.13;;;36.41;31.33
60417;BME280;46263;44.726;10.396;2023-08-24T13:05:41;100299.28;;;36.45;33.19
60417;BME280;46263;44.726;10.396;2023-08-24T13:08:07;100296.34;;;36.43;33.12
60417;BME280;46263;44.726;10.396;2023-08-24T13:10:33;100290.63;;;36.51;32.73
60417;BME280;46263;44.726;10.396;2023-08-24T13:12:58;100280.50;;;36.58;33.46
60417;BME280;46263;44.726;10.396;2023-08-24T13:15:24;100285.66;;;36.61;32.03
60417;BME280;46263;44.726;10.396;2023-08-24T13:17:49;100289.31;;;36.64;31.87
60417;BME280;46263;44.726;10.396;2023-08-24T13:20:15;100274.09;;;36.71;31.37
60417;BME280;46263;44.726;10.396;2023-08-24T13:22:41;100275.59;;;36.76;31.13
60417;BME280;46263;44.726;10.396;2023-08-24T13:25:07;100264.66;;;36.76;31.59
60417;BME280;46263;44.726;10.396;2023-08-24T13:27:32;100270.59;;;36.82;32.50
60417;BME280;46263;44.726;10.396;2023-08-24T13:30:02;100267.78;;;36.90;32.47
60417;BME280;46263;44.726;10.396;2023-08-24T13:32:28;100268.56;;;36.97;32.37
60417;BME280;46263;44.726;10.396;2023-08-24T13:34:54;100264.25;;;37.02;32.36
60417;BME280;46263;44.726;10.396;2023-08-24T13:37:21;100265.09;;;37.16;30.66
60417;BME280;46263;44.726;10.396;2023-08-24T13:39:47;100252.06;;;37.25;30.70
60417;BME280;46263;44.726;10.396;2023-08-24T13:42:12;100258.72;;;37.32;31.54
60417;BME280;46263;44.726;10.396;2023-08-24T13:44:38;100250.72;;;37.36;30.64
60417;BME280;46263;44.726;10.396;2023-08-24T13:47:04;100250.78;;;37.44;30.86
60417;BME280;46263;44.726;10.396;2023-08-24T13:49:29;100245.72;;;37.49;30.67
60417;BME280;46263;44.726;10.396;2023-08-24T13:51:55;100241.38;;;37.52;30.51
60417;BME280;46263;44.726;10.396;2023-08-24T13:54:20;100240.69;;;37.59;31.60
60417;BME280;46263;44.726;10.396;2023-08-24T13:56:47;100245.09;;;37.62;30.25
60417;BME280;46263;44.726;10.396;2023-08-24T13:59:13;100239.31;;;37.74;29.54
60417;BME280;46263;44.726;10.396;2023-08-24T14:01:39;100229.16;;;37.81;31.28
60417;BME280;46263;44.726;10.396;2023-08-24T14:04:05;100227.69;;;37.78;30.94
60417;BME280;46263;44.726;10.396;2023-08-24T14:06:32;100233.47;;;37.74;30.82
60417;BME280;46263;44.726;10.396;2023-08-24T14:09:00;100224.72;;;37.72;30.98
60417;BME280;46263;44.726;10.396;2023-08-24T14:11:25;100211.56;;;37.69;31.01
60417;BME280;46263;44.726;10.396;2023-08-24T14:13:51;100218.84;;;37.70;30.88
60417;BME280;46263;44.726;10.396;2023-08-24T14:16:17;100211.53;;;37.67;30.71
60417;BME280;46263;44.726;10.396;2023-08-24T14:18:43;100224.66;;;37.66;31.84
60417;BME280;46263;44.726;10.396;2023-08-24T14:21:08;100214.47;;;37.69;30.78
60417;BME280;46263;44.726;10.396;2023-08-24T14:23:35;100208.63;;;37.73;32.12
60417;BME280;46263;44.726;10.396;2023-08-24T14:26:01;100210.09;;;37.70;30.71
60417;BME280;46263;44.726;10.396;2023-08-24T14:28:55;100211.56;;;37.69;30.18
60417;BME280;46263;44.726;10.396;2023-08-24T14:31:27;100210.09;;;37.68;30.34
60417;BME280;46263;44.726;10.396;2023-08-24T14:33:53;100220.28;;;37.65;30.73
60417;BME280;46263;44.726;10.396;2023-08-24T14:36:19;100212.25;;;37.65;30.36
60417;BME280;46263;44.726;10.396;2023-08-24T14:38:46;100208.59;;;37.65;31.72
60417;BME280;46263;44.726;10.396;2023-08-24T14:41:13;100218.09;;;37.65;31.53
60417;BME280;46263;44.726;10.396;2023-08-24T14:43:39;100204.22;;;37.66;30.61
60417;BME280;46263;44.726;10.396;2023-08-24T14:46:05;100196.91;;;37.65;30.78
60417;BME280;46263;44.726;10.396;2023-08-24T14:48:31;100199.84;;;37.67;30.96
60417;BME280;46263;44.726;10.396;2023-08-24T14:50:56;100201.34;;;37.72;31.44
60417;BME280;46263;44.726;10.396;2023-08-24T14:53:22;100195.50;;;37.74;30.93
60417;BME280;46263;44.726;10.396;2023-08-24T14:55:48;100185.28;;;37.71;30.38
60417;BME280;46263;44.726;10.396;2023-08-24T14:58:14;100185.28;;;37.75;31.57
60417;BME280;46263;44.726;10.396;2023-08-24T15:00:39;100183.16;;;37.77;31.46
60417;BME280;46263;44.726;10.396;2023-08-24T15:03:04;100182.44;;;37.83;31.40
60417;BME280;46263;44.726;10.396;2023-08-24T15:05:30;100181.72;;;37.82;31.23
60417;BME280;46263;44.726;10.396;2023-08-24T15:07:55;100177.34;;;37.83;31.00
60417;BME280;46263;44.726;10.396;2023-08-24T15:10:21;100178.78;;;37.80;31.03
60417;BME280;46263;44.726;10.396;2023-08-24T15:12:46;100183.16;;;37.79;31.78
60417;BME280;46263;44.726;10.396;2023-08-24T15:15:12;100177.31;;;37.79;30.83
60417;BME280;46263;44.726;10.396;2023-08-24T15:17:43;100184.59;;;37.76;30.37
60417;BME280;46263;44.726;10.396;2023-08-24T15:20:10;100179.50;;;37.77;30.94
60417;BME280;46263;44.726;10.396;2023-08-24T15:22:36;100182.44;;;37.79;29.63
60417;BME280;46263;44.726;10.396;2023-08-24T15:25:02;100175.13;;;37.78;29.91
60417;BME280;46263;44.726;10.396;2023-08-24T15:27:28;100170.03;;;37.80;30.68
60417;BME280;46263;44.726;10.396;2023-08-24T15:29:53;100170.75;;;37.79;30.50
60417;BME280;46263;44.726;10.396;2023-08-24T15:32:20;100167.09;;;37.78;31.72
60417;BME280;46263;44.726;10.396;2023-08-24T15:34:46;100164.16;;;37.76;31.44
60417;BME280;46263;44.726;10.396;2023-08-24T15:37:11;100164.16;;;37.76;31.51
60417;BME280;46263;44.726;10.396;2023-08-24T15:39:38;100170.69;;;37.75;31.74
60417;BME280;46263;44.726;10.396;2023-08-24T15:42:05;100162.66;;;37.73;31.37
60417;BME280;46263;44.726;10.396;2023-08-24T15:44:30;100161.97;;;37.77;31.11
60417;BME280;46263;44.726;10.396;2023-08-24T15:46:56;100153.97;;;37.79;31.08
60417;BME280;46263;44.726;10.396;2023-08-24T15:49:22;100147.41;;;37.79;30.56
60417;BME280;46263;44.726;10.396;2023-08-24T15:51:49;100147.41;;;37.85;31.04
60417;BME280;46263;44.726;10.396;2023-08-24T15:54:14;100151.81;;;37.92;30.76
60417;BME280;46263;44.726;10.396;2023-08-24T15:56:39;100154.75;;;37.92;30.24
60417;BME280;46263;44.726;10.396;2023-08-24T15:59:07;100147.47;;;37.95;29.98
60417;BME280;46263;44.726;10.396;2023-08-24T16:01:32;100150.38;;;37.95;29.78
60417;BME280;46263;44.726;10.396;2023-08-24T16:03:58;100155.47;;;37.90;30.52
60417;BME280;46263;44.726;10.396;2023-08-24T16:06:23;100154.75;;;37.88;30.42
60417;BME280;46263;44.726;10.396;2023-08-24T16:08:49;100153.22;;;37.81;30.20
60417;BME280;46263;44.726;10.396;2023-08-24T16:11:14;100145.94;;;37.82;29.92
60417;BME280;46263;44.726;10.396;2023-08-24T16:13:40;100149.56;;;37.76;30.01
60417;BME280;46263;44.726;10.396;2023-08-24T16:16:05;100151.00;;;37.75;29.61
60417;BME280;46263;44.726;10.396;2023-08-24T16:18:30;100139.28;;;37.71;30.50
60417;BME280;46263;44.726;10.396;2023-08-24T16:20:56;100148.78;;;37.70;30.79
60417;BME280;46263;44.726;10.396;2023-08-24T16:23:21;100140.72;;;37.68;31.01
60417;BME280;46263;44.726;10.396;2023-08-24T16:25:47;100142.91;;;37.62;31.38
60417;BME280;46263;44.726;10.396;2023-08-24T16:28:13;100138.47;;;37.57;31.89
60417;BME280;46263;44.726;10.396;2023-08-24T16:30:39;100134.09;;;37.54;32.40
60417;BME280;46263;44.726;10.396;2023-08-24T16:33:04;100136.28;;;37.52;32.32
60417;BME280;46263;44.726;10.396;2023-08-24T16:35:30;100134.78;;;37.49;32.47
60417;BME280;46263;44.726;10.396;2023-08-24T16:37:55;100133.28;;;37.42;32.61
60417;BME280;46263;44.726;10.396;2023-08-24T16:40:21;100136.94;;;37.38;32.50
60417;BME280;46263;44.726;10.396;2023-08-24T16:42:47;100136.88;;;37.34;32.90
60417;BME280;46263;44.726;10.396;2023-08-24T16:45:12;100139.00;;;37.30;32.66
60417;BME280;46263;44.726;10.396;2023-08-24T16:47:38;100136.78;;;37.22;32.72
60417;BME280;46263;44.726;10.396;2023-08-24T16:50:03;100138.97;;;37.22;32.83
60417;BME280;46263;44.726;10.396;2023-08-24T16:52:29;100134.56;;;37.17;32.94
60417;BME280;46263;44.726;10.396;2023-08-24T16:54:54;100143.28;;;37.13;33.03
60417;BME280;46263;44.726;10.396;2023-08-24T16:57:22;100148.34;;;37.08;33.75
60417;BME280;46263;44.726;10.396;2023-08-24T16:59:47;100145.44;;;37.06;34.24
60417;BME280;46263;44.726;10.396;2023-08-24T17:02:13;100149.03;;;37.05;33.81
60417;BME280;46263;44.726;10.396;2023-08-24T17:04:38;100143.91;;;37.01;34.09
60417;BME280;46263;44.726;10.396;2023-08-24T17:07:04;100152.66;;;36.97;34.60
60417;BME280;46263;44.726;10.396;2023-08-24T17:09:29;100152.63;;;36.95;34.52
60417;BME280;46263;44.726;10.396;2023-08-24T17:11:55;100145.31;;;36.90;34.62
60417;BME280;46263;44.726;10.396;2023-08-24T17:14:20;100146.72;;;36.87;34.58
60417;BME280;46263;44.726;10.396;2023-08-24T17:16:46;100150.28;;;36.82;34.76
60417;BME280;46263;44.726;10.396;2023-08-24T17:19:11;100146.59;;;36.77;34.58
60417;BME280;46263;44.726;10.396;2023-08-24T17:21:36;100146.56;;;36.73;34.81
60417;BME280;46263;44.726;10.396;2023-08-24T17:24:02;100150.91;;;36.70;35.00
60417;BME280;46263;44.726;10.396;2023-08-24T17:26:28;100154.50;;;36.65;35.15
60417;BME280;46263;44.726;10.396;2023-08-24T17:28:53;100155.16;;;36.60;34.99
60417;BME280;46263;44.726;10.396;2023-08-24T17:31:19;100160.28;;;36.59;35.12
60417;BME280;46263;44.726;10.396;2023-08-24T17:33:44;100157.31;;;36.53;35.29
60417;BME280;46263;44.726;10.396;2023-08-24T17:36:10;100161.63;;;36.48;35.55
60417;BME280;46263;44.726;10.396;2023-08-24T17:38:35;100155.03;;;36.46;35.64
60417;BME280;46263;44.726;10.396;2023-08-24T17:41:01;100157.91;;;36.44;36.05
60417;BME280;46263;44.726;10.396;2023-08-24T17:43:28;100156.38;;;36.39;36.07
60417;BME280;46263;44.726;10.396;2023-08-24T17:45:53;100165.09;;;36.37;35.81
60417;BME280;46263;44.726;10.396;2023-08-24T17:48:19;100161.44;;;36.34;35.78
60417;BME280;46263;44.726;10.396;2023-08-24T17:50:54;100159.25;;;36.33;36.33
60417;BME280;46263;44.726;10.396;2023-08-24T17:53:20;100156.31;;;36.31;36.25